Terminal Aerodrome Forecast
Issued by NWS Cleveland, OH

Home | Current Version | Previous Version | Text Only | Print | Product List | Glossary On
Versions: 1 2 3 4 5 6 7 8 9 10 11 12 13 14 15 16 17 18 19 20 21 22 23 24 25 26 27
000
FTUS41 KCLE 010526
TAFCLE
TAF
KCLE 010526Z 0106/0212 15008KT 5SM BR OVC015
     FM010900 15009KT 4SM -DZ BR OVC007
     FM011500 31007KT 4SM BR OVC007
     FM011800 36007KT 6SM HZ OVC035
     FM020400 05004KT 4SM -RA BR OVC015
     FM020900 03004KT 4SM -RA BR OVC004=

USA.gov is the U.S. government's official web portal to all federal, state and local government web resources and services.